Startpagina
METAR-TAF:

METAR-TAF

Vliegvelden :

Yap, Micronesië

breedte: 09-29N, lengte: 138-05E, hoogte: 28 m

Actueel weer

Dit bericht is 1 uur en het 1 minuten geleden gemaakt, om 18:50 UTC
Wind 2 kt uit variabele richting
Temperatuur 26°C
Vochtigheid 89%
Druk 1010 hPa
Zicht: 19.3 km
Weinig wolken op 1600 ft
Gebroken wolken op 30000 ft

METAR: PTYA 231850Z VRB02KT 12SM FEW016 BKN300 26/24 A2983 RMK SLP103 T02550242

Tijdstip: 05:51 (19:51 UTC)

Verwachting

Dit bericht is 2 uur en het 24 minuten geleden gemaakt, om 17:27 UTC
Verwachting geldig van 23 om 18 UTC tot 24 om 18 UTC
Wind 4 kt uit variabele richting
Zicht: 10 km
Weinig wolken op 1600 ft
Verspreide wolken op 4000 ft
Verspreide wolken op 12000 ft
buien in de omgeving
Van 24 om 0200 UTC
Wind 8 kt uit het oosten
Zicht: 10 km
Weinig wolken op 1600 ft
Verspreide wolken op 4000 ft
Verspreide wolken op 12000 ft
buien in de omgeving

TAF: PTYA 231727Z 2318/2418 VRB04KT P6SM VCSH FEW016 SCT040 SCT120 FM240200 08008KT P6SM VCSH FEW016 SCT040 SCT120

Waarnemingen en weersverwachtingen van meer dan 4000 vliegvelden (METAR en TAF).

De beschikbare stations zijn de gele en rode punten op de kaart.

Ga met uw muis naar het station om de naam te zien.

Klik dan om waarnemingen en weersverwachtingen te zien.

kaart wijzigen: klik op de groene knoppen met een zwart kruis om in te zoomen, op de groene knop met een streepje om uit te zoomen of op de groene pijlen voor aangrenzende kaarten.


METAR-TAF: